Map

Track Data

SID SEASON NUMBER BASIN SUBBASIN NAME ISO_TIME NATURE LAT LON WMO_WIND WMO_PRES WMO_AGENCY TRACK_TYPE DIST2LAND LANDFALL IFLAG USA_AGENCY USA_ATCF_ID USA_LAT USA_LON USA_RECORD USA_STATUS USA_WIND USA_PRES USA_SSHS USA_R34_NE USA_R34_SE USA_R34_SW USA_R34_NW USA_R50_NE USA_R50_SE USA_R50_SW USA_R50_NW USA_R64_NE USA_R64_SE USA_R64_SW USA_R64_NW USA_POCI USA_ROCI USA_RMW USA_EYE TOKYO_LAT TOKYO_LON TOKYO_GRADE TOKYO_WIND TOKYO_PRES TOKYO_R50_DIR TOKYO_R50_LONG TOKYO_R50_SHORT TOKYO_R30_DIR TOKYO_R30_LONG TOKYO_R30_SHORT TOKYO_LAND CMA_LAT CMA_LON CMA_CAT CMA_WIND CMA_PRES HKO_LAT HKO_LON HKO_CAT HKO_WIND HKO_PRES NEWDELHI_LAT NEWDELHI_LON NEWDELHI_GRADE NEWDELHI_WIND NEWDELHI_PRES NEWDELHI_CI NEWDELHI_DP NEWDELHI_POCI REUNION_LAT REUNION_LON REUNION_TYPE REUNION_WIND REUNION_PRES REUNION_TNUM REUNION_CI REUNION_RMW REUNION_R34_NE REUNION_R34_SE REUNION_R34_SW REUNION_R34_NW REUNION_R50_NE REUNION_R50_SE REUNION_R50_SW REUNION_R50_NW REUNION_R64_NE REUNION_R64_SE REUNION_R64_SW REUNION_R64_NW BOM_LAT BOM_LON BOM_TYPE BOM_WIND BOM_PRES BOM_TNUM BOM_CI BOM_RMW BOM_R34_NE BOM_R34_SE BOM_R34_SW BOM_R34_NW BOM_R50_NE BOM_R50_SE BOM_R50_SW BOM_R50_NW BOM_R64_NE BOM_R64_SE BOM_R64_SW BOM_R64_NW BOM_ROCI BOM_POCI BOM_EYE BOM_POS_METHOD BOM_PRES_METHOD NADI_LAT NADI_LON NADI_CAT NADI_WIND NADI_PRES WELLINGTON_LAT WELLINGTON_LON WELLINGTON_WIND WELLINGTON_PRES DS824_LAT DS824_LON DS824_STAGE DS824_WIND DS824_PRES TD9636_LAT TD9636_LON TD9636_STAGE TD9636_WIND TD9636_PRES TD9635_LAT TD9635_LON TD9635_WIND TD9635_PRES TD9635_ROCI NEUMANN_LAT NEUMANN_LON NEUMANN_CLASS NEUMANN_WIND NEUMANN_PRES MLC_LAT MLC_LON MLC_CLASS MLC_WIND MLC_PRES USA_GUST BOM_GUST BOM_GUST_PER REUNION_GUST REUNION_GUST_PER USA_SEAHGT USA_SEARAD_NE USA_SEARAD_SE USA_SEARAD_SW USA_SEARAD_NW STORM_SPEED STORM_DIR
1902032S17071 1902 5 SI MM NOT_NAMED 1902-02-01 06:00:00 NR -17.1000 71.3000 reunion spur-split 1465 1452 _____O________ -1 -17.1000 71.3000 99 9.90000 2 242
1902032S17071 1902 5 SI MM NOT_NAMED 1902-02-01 09:00:00 NR -17.1557 71.1943 spur-split 1452 1442 _____P________ -1 -17.1557 71.1943 99 2 241
1902032S17071 1902 5 SI MM NOT_NAMED 1902-02-01 12:00:00 NR -17.2121 71.0844 spur-split 1442 1428 _____P________ -1 -17.2121 71.0844 99 2 242
1902032S17071 1902 5 SI MM NOT_NAMED 1902-02-01 15:00:00 NR -17.2698 70.9661 spur-split 1428 1408 _____P________ -1 -17.2698 70.9661 99 3 244
1902032S17071 1902 5 SI MM NOT_NAMED 1902-02-01 18:00:00 NR -17.3294 70.8351 spur-split 1408 1395 _____P________ -1 -17.3294 70.8351 99 3 245
1902032S17071 1902 5 SI MM NOT_NAMED 1902-02-01 21:00:00 NR -17.3916 70.6872 spur-split 1395 1371 _____P________ -1 -17.3916 70.6872 99 3 247
1902032S17071 1902 5 SI MM NOT_NAMED 1902-02-02 00:00:00 NR -17.4570 70.5182 spur-split 1371 1351 _____P________ -1 -17.4570 70.5182 99 4 249
1902032S17071 1902 5 SI MM NOT_NAMED 1902-02-02 03:00:00 NR -17.5263 70.3239 spur-split 1351 1328 _____P________ -1 -17.5263 70.3239 99 4 250
1902032S17071 1902 5 SI MM NOT_NAMED 1902-02-02 06:00:00 NR -17.6000 70.1000 reunion spur-split 1328 1304 _____O________ -1 -17.6000 70.1000 99 9.90000 5 252
1902032S17071 1902 5 SI MM NOT_NAMED 1902-02-02 09:00:00 NR -17.6787 69.8438 spur-split 1294 1271 _____P________ -1 -17.6787 69.8438 99 5 253
1902032S17071 1902 5 SI MM NOT_NAMED 1902-02-02 12:00:00 NR -17.7626 69.5584 spur-split 1271 1240 _____P________ -1 -17.7626 69.5584 99 6 253
1902032S17071 1902 5 SI MM NOT_NAMED 1902-02-02 15:00:00 NR -17.8523 69.2487 spur-split 1227 1196 _____P________ -1 -17.8523 69.2487 99 6 253
1902032S17071 1902 5 SI MM NOT_NAMED 1902-02-02 18:00:00 NR -17.9480 68.9193 spur-split 1196 1163 _____P________ -1 -17.9480 68.9193 99 7 253
1902032S17071 1902 5 SI MM NOT_NAMED 1902-02-02 21:00:00 NR -18.0502 68.5750 spur-split 1160 1116 _____P________ -1 -18.0502 68.5750 99 7 252
1902032S17071 1902 5 SI MM NOT_NAMED 1902-02-03 00:00:00 NR -18.1593 68.2206 spur-split 1116 1083 _____P________ -1 -18.1593 68.2206 99 7 252
1902032S17071 1902 5 SI MM NOT_NAMED 1902-02-03 03:00:00 NR -18.2757 67.8606 spur-split 1083 1039 _____P________ -1 -18.2757 67.8606 99 7 251
1902032S17071 1902 5 SI MM NOT_NAMED 1902-02-03 06:00:00 NR -18.4000 67.5000 reunion spur-split 1039 1006 _____O________ -1 -18.4000 67.5000 99 9.90000 7 249
1902032S17071 1902 5 SI MM NOT_NAMED 1902-02-03 09:00:00 NR -18.5249 67.1759 spur-split 1006 972 _____P________ -1 -18.5249 67.1759 99 7 247
1902032S17071 1902 5 SI MM NOT_NAMED 1902-02-03 12:00:00 NR -18.6575 66.8497 spur-split 960 926 _____P________ -1 -18.6575 66.8497 99 7 246
1902032S17071 1902 5 SI MM NOT_NAMED 1902-02-03 15:00:00 NR -18.7977 66.5188 spur-split 926 893 _____P________ -1 -18.7977 66.5188 99 7 246
1902032S17071 1902 5 SI MM NOT_NAMED 1902-02-03 18:00:00 NR -18.9452 66.1805 spur-split 893 858 _____P________ -1 -18.9452 66.1805 99 7 245
1902032S17071 1902 5 SI MM NOT_NAMED 1902-02-03 21:00:00 NR -19.0994 65.8322 spur-split 848 813 _____P________ -1 -19.0994 65.8322 99 7 245
1902032S17071 1902 5 SI MM NOT_NAMED 1902-02-04 00:00:00 NR -19.2603 65.4711 spur-split 813 769 _____P________ -1 -19.2603 65.4711 99 8 245
1902032S17071 1902 5 SI MM NOT_NAMED 1902-02-04 03:00:00 NR -19.4272 65.0946 spur-split 769 725 _____P________ -1 -19.4272 65.0946 99 8 245
1902032S17071 1902 5 SI MM NOT_NAMED 1902-02-04 06:00:00 NR -19.6000 64.7000 reunion spur-split 725 681 _____O________ -1 -19.6000 64.7000 99 9.90000 8 246
1902032S17071 1902 5 SI MM NOT_NAMED 1902-02-04 09:00:00 NR -19.7681 64.2734 spur-split 681 638 _____P________ -1 -19.7681 64.2734 99 9 247
1902032S17071 1902 5 SI MM NOT_NAMED 1902-02-04 12:00:00 NR -19.9418 63.8270 spur-split 628 584 _____P________ -1 -19.9418 63.8270 99 9 248
1902032S17071 1902 5 SI MM NOT_NAMED 1902-02-04 15:00:00 NR -20.1210 63.3657 spur-split 584 531 _____P________ -1 -20.1210 63.3657 99 10 247
1902032S17071 1902 5 SI MM NOT_NAMED 1902-02-04 18:00:00 NR -20.3058 62.8941 spur-split 531 479 _____P________ -1 -20.3058 62.8941 99 10 247
1902032S17071 1902 5 SI MM NOT_NAMED 1902-02-04 21:00:00 NR -20.4960 62.4169 spur-split 479 438 _____P________ -1 -20.4960 62.4169 99 10 247
1902032S17071 1902 5 SI MM NOT_NAMED 1902-02-05 00:00:00 NR -20.6917 61.9390 spur-split 429 390 _____P________ -1 -20.6917 61.9390 99 10 246
1902032S17071 1902 5 SI MM NOT_NAMED 1902-02-05 03:00:00 NR -20.8930 61.4651 spur-split 390 344 _____P________ -1 -20.8930 61.4651 99 10 245
1902032S17071 1902 5 SI MM NOT_NAMED 1902-02-05 06:00:00 NR -21.1000 61.0000 reunion spur-split 344 302 _____O________ -1 -21.1000 61.0000 99 9.90000 10 244
1902032S17071 1902 5 SI MM NOT_NAMED 1902-02-05 09:00:00 NR -21.3304 60.5201 spur-split 302 273 _____P________ -1 -21.3304 60.5201 99 10 242
1902032S17071 1902 5 SI MM NOT_NAMED 1902-02-05 12:00:00 NR -21.5697 60.0415 spur-split 268 244 _____P________ -1 -21.5697 60.0415 99 10 241
1902032S17071 1902 5 SI MM NOT_NAMED 1902-02-05 15:00:00 NR -21.8126 59.5710 spur-split 244 221 _____P________ -1 -21.8126 59.5710 99 10 241
1902032S17071 1902 5 SI MM NOT_NAMED 1902-02-05 18:00:00 NR -22.0538 59.1161 spur-split 230 217 _____P________ -1 -22.0538 59.1161 99 10 240
1902032S17071 1902 5 SI MM NOT_NAMED 1902-02-05 21:00:00 NR -22.2883 58.6840 spur-split 226 221 _____P________ -1 -22.2883 58.6840 99 9 239
1902032S17071 1902 5 SI MM NOT_NAMED 1902-02-06 00:00:00 NR -22.5108 58.2822 spur-split 232 229 _____P________ -1 -22.5108 58.2822 99 8 239
1902032S17071 1902 5 SI MM NOT_NAMED 1902-02-06 03:00:00 NR -22.7164 57.9183 spur-split 246 246 _____P________ -1 -22.7164 57.9183 99 7 238
1902032S17071 1902 5 SI MM NOT_NAMED 1902-02-06 06:00:00 NR -22.9000 57.6000 reunion spur-split 257 250 _____O________ -1 -22.9000 57.6000 99 9.90000 6 238
1902032S17071 1902 5 SI MM NOT_NAMED 1902-02-06 09:00:00 NR -23.0581 57.3326 spur-split 253 247 _____P________ -1 -23.0581 57.3326 99 5 237
1902032S17071 1902 5 SI MM NOT_NAMED 1902-02-06 12:00:00 NR -23.1927 57.1119 spur-split 251 245 _____P________ -1 -23.1927 57.1119 99 4 236
1902032S17071 1902 5 SI MM NOT_NAMED 1902-02-06 15:00:00 NR -23.3075 56.9315 spur-split 250 250 _____P________ -1 -23.3075 56.9315 99 4 235
1902032S17071 1902 5 SI MM NOT_NAMED 1902-02-06 18:00:00 NR -23.4057 56.7848 spur-split 255 230 _____P________ -1 -23.4057 56.7848 99 3 304
1902032S17071 1902 5 SI MM NOT_NAMED 1902-02-06 21:00:00 NR -23.1489 56.6713 spur-split 221 216 _____P________ -1 -23.4907 56.6650 99 4 326
1902032S17071 1902 5 SI MM NOT_NAMED 1902-02-07 00:00:00 NR -23.0826 56.5465 spur-split 211 211 _____P________ -1 -23.5660 56.5654 99 3 240
1902032S17071 1902 5 SI MM NOT_NAMED 1902-02-07 03:00:00 NR -23.2822 56.4173 spur-split 227 227 _____P________ -1 -23.6346 56.4793 99 6 204
1902032S17071 1902 5 SI MM NOT_NAMED 1902-02-07 06:00:00 NR -23.6000 56.3000 reunion spur-split 256 _____O________ -1 -23.7000 56.4000 99 9.90000 -23.5000 56.2000 7 7 199

About IBTrACS Database

This database is a web-friendly format of International Best Track Archive for Climate Stewardship (IBTrACS), a global best track data archive curated by NOAA dating back to 1842.

Updated: 2021-11-26